Time;durP1;ratioP1;P1;durP2;ratioP2;P2;SDS_P1;SDS_P2;PMS_P1;PMS_P2;Temp;Humidity;BMP_temperature;BMP_pressure;BME280_temperature;BME280_humidity;BME280_pressure;Samples;Min_cycle;Max_cycle;Signal;HPM_P1;HPM_P2
2021/11/05 00:00:28;;;;;;;4.32;2.65;;;10.80;57.40;;;;;;5054157;28;20094;-66
2021/11/05 00:02:57;;;;;;;5.78;3.22;;;10.80;57.40;;;;;;5052779;28;20028;-67
2021/11/05 00:05:24;;;;;;;5.60;3.88;;;10.80;57.40;;;;;;5054405;28;20036;-68
2021/11/05 00:07:50;;;;;;;6.22;3.53;;;10.80;57.50;;;;;;5053685;28;20033;-65
2021/11/05 00:10:16;;;;;;;4.28;2.58;;;10.70;57.60;;;;;;5036444;28;20094;-65
2021/11/05 00:12:43;;;;;;;4.35;3.00;;;10.70;57.70;;;;;;5035954;28;20021;-67
2021/11/05 00:15:09;;;;;;;3.90;2.70;;;10.70;57.90;;;;;;5054479;28;20037;-65
2021/11/05 00:17:35;;;;;;;4.47;2.95;;;10.60;58.00;;;;;;5053992;28;20118;-62
2021/11/05 00:20:02;;;;;;;4.25;2.97;;;10.50;58.20;;;;;;5053567;28;20032;-62
2021/11/05 00:22:28;;;;;;;5.80;2.83;;;10.50;58.40;;;;;;5036496;28;20025;-67
2021/11/05 00:24:54;;;;;;;7.32;3.83;;;10.60;58.40;;;;;;5053422;28;20036;-67
2021/11/05 00:27:19;;;;;;;6.53;3.00;;;10.70;58.30;;;;;;5053654;28;20458;-61
2021/11/05 00:29:45;;;;;;;6.88;3.35;;;10.70;58.20;;;;;;5018734;28;20120;-64
2021/11/05 00:32:11;;;;;;;3.40;2.65;;;10.70;58.20;;;;;;5052361;28;20410;-60
2021/11/05 00:34:37;;;;;;;3.33;2.63;;;10.70;58.20;;;;;;5053261;28;20053;-61
2021/11/05 00:37:03;;;;;;;3.63;2.70;;;10.60;58.30;;;;;;5052625;28;20095;-67
2021/11/05 00:39:29;;;;;;;3.40;2.70;;;10.60;58.40;;;;;;5053630;28;20023;-68
2021/11/05 00:41:54;;;;;;;4.15;2.60;;;10.60;58.40;;;;;;5052460;28;20099;-68
2021/11/05 00:44:20;;;;;;;3.28;2.65;;;10.60;58.40;;;;;;5053809;28;20029;-67
2021/11/05 00:46:46;;;;;;;3.63;2.58;;;10.70;58.50;;;;;;5035099;28;20036;-64
2021/11/05 00:49:12;;;;;;;6.05;3.60;;;10.70;58.50;;;;;;5052377;28;20446;-61
2021/11/05 00:51:37;;;;;;;3.92;2.70;;;10.60;58.60;;;;;;5053662;28;20458;-66
2021/11/05 00:54:03;;;;;;;5.55;2.97;;;10.70;58.70;;;;;;5053213;28;20217;-62
2021/11/05 00:56:29;;;;;;;3.67;2.80;;;10.70;58.70;;;;;;5052967;28;20060;-67
2021/11/05 00:58:55;;;;;;;4.55;3.10;;;10.70;58.90;;;;;;5052467;28;20040;-62
2021/11/05 01:01:21;;;;;;;3.95;2.88;;;10.60;58.90;;;;;;5051957;28;20029;-62
2021/11/05 01:03:46;;;;;;;3.92;3.08;;;10.60;59.00;;;;;;5035029;28;20029;-63
2021/11/05 01:06:17;;;;;;;11.13;3.22;;;10.70;59.10;;;;;;5052942;28;20459;-68
2021/11/05 01:08:44;;;;;;;4.43;3.42;;;10.60;59.20;;;;;;5053087;28;20021;-62
2021/11/05 01:11:10;;;;;;;5.07;3.22;;;10.60;59.30;;;;;;5034097;28;20454;-66
2021/11/05 01:13:36;;;;;;;3.75;3.00;;;10.60;59.30;;;;;;5053267;28;20049;-66
2021/11/05 01:16:02;;;;;;;4.50;2.80;;;10.60;59.50;;;;;;5033533;28;20028;-65
2021/11/05 01:18:28;;;;;;;4.88;3.13;;;10.60;59.50;;;;;;5052714;28;20037;-65
2021/11/05 01:20:53;;;;;;;5.78;3.30;;;10.50;59.50;;;;;;5052977;28;20082;-62
2021/11/05 01:23:21;;;;;;;5.18;3.20;;;10.60;59.80;;;;;;5053328;28;20025;-62
2021/11/05 01:25:48;;;;;;;4.75;3.22;;;10.60;59.90;;;;;;5033001;28;20037;-61
2021/11/05 01:28:14;;;;;;;3.88;2.95;;;10.60;60.00;;;;;;5052628;28;20025;-65
2021/11/05 01:30:39;;;;;;;4.68;3.47;;;10.50;60.00;;;;;;5053242;28;20108;-64
2021/11/05 01:33:08;;;;;;;4.25;3.33;;;10.50;60.60;;;;;;5052595;28;20443;-61
2021/11/05 01:35:38;;;;;;;4.55;3.53;;;10.40;60.70;;;;;;5052557;28;20036;-59
2021/11/05 01:38:09;;;;;;;4.00;3.53;;;10.40;60.70;;;;;;5052170;28;20032;-66
2021/11/05 01:40:36;;;;;;;4.22;3.42;;;10.40;60.70;;;;;;5051523;28;20043;-63
2021/11/05 01:43:03;;;;;;;5.97;3.80;;;10.40;60.80;;;;;;5034295;28;20470;-60
2021/11/05 01:45:31;;;;;;;4.40;3.80;;;10.50;60.80;;;;;;5052511;28;20509;-63
2021/11/05 01:47:57;;;;;;;5.18;4.10;;;10.50;60.90;;;;;;5051684;28;20123;-66
2021/11/05 01:50:23;;;;;;;4.95;4.10;;;10.50;60.90;;;;;;5050616;28;20025;-63
2021/11/05 01:52:50;;;;;;;7.03;3.88;;;10.40;60.90;;;;;;5050125;28;20494;-67
2021/11/05 01:55:15;;;;;;;4.88;3.70;;;10.50;61.00;;;;;;5052094;28;20065;-65
2021/11/05 01:57:42;;;;;;;5.65;3.95;;;10.40;61.20;;;;;;5051069;28;20111;-62
2021/11/05 02:00:15;;;;;;;4.30;3.70;;;10.40;61.30;;;;;;5051923;28;20057;-62
2021/11/05 02:02:41;;;;;;;5.30;4.10;;;10.40;61.40;;;;;;5052324;28;20033;-63
2021/11/05 02:05:07;;;;;;;5.28;3.67;;;10.40;61.50;;;;;;5052125;28;20524;-65
2021/11/05 02:07:36;;;;;;;4.75;3.83;;;10.40;61.50;;;;;;5050581;28;20316;-65
2021/11/05 02:10:04;;;;;;;7.63;3.80;;;10.40;61.50;;;;;;5051557;28;20021;-63
2021/11/05 02:12:31;;;;;;;5.47;3.92;;;10.30;61.50;;;;;;5034848;28;20063;-67
2021/11/05 02:15:01;;;;;;;6.20;3.65;;;10.30;61.50;;;;;;5051099;28;20024;-67
2021/11/05 02:17:28;;;;;;;4.40;3.42;;;10.30;61.70;;;;;;5032031;28;20029;-63
2021/11/05 02:19:58;;;;;;;4.53;4.05;;;10.30;61.80;;;;;;5033101;28;20028;-65
2021/11/05 02:22:24;;;;;;;4.40;3.55;;;10.20;61.70;;;;;;5050010;28;20466;-64
2021/11/05 02:24:50;;;;;;;5.25;4.20;;;10.20;61.90;;;;;;5051443;28;20033;-66
2021/11/05 02:27:16;;;;;;;6.20;4.25;;;10.20;62.10;;;;;;5049964;28;20082;-63
2021/11/05 02:29:43;;;;;;;4.80;3.90;;;10.20;62.00;;;;;;5051364;28;20024;-61
2021/11/05 02:32:09;;;;;;;6.43;3.97;;;10.20;62.10;;;;;;5051535;28;20087;-64
2021/11/05 02:34:35;;;;;;;4.63;3.90;;;10.20;62.10;;;;;;5031508;28;20041;-62
2021/11/05 02:37:03;;;;;;;4.55;4.03;;;10.20;62.10;;;;;;5016055;28;20044;-65
2021/11/05 02:39:30;;;;;;;4.80;3.33;;;10.20;62.10;;;;;;5050521;28;20071;-62
2021/11/05 02:41:56;;;;;;;5.45;3.92;;;10.10;62.00;;;;;;5049815;28;20114;-65
2021/11/05 02:44:22;;;;;;;5.90;3.55;;;10.10;62.10;;;;;;5033419;28;20454;-61
2021/11/05 02:46:49;;;;;;;5.80;3.75;;;10.20;62.10;;;;;;5050566;28;20052;-66
2021/11/05 02:49:16;;;;;;;5.55;3.90;;;10.20;62.10;;;;;;5049308;28;20110;-60
2021/11/05 02:51:46;;;;;;;5.05;3.67;;;10.20;62.00;;;;;;5033440;28;20497;-61
2021/11/05 02:54:12;;;;;;;4.75;3.55;;;10.20;62.00;;;;;;5064125;28;20048;-65
2021/11/05 02:56:38;;;;;;;5.28;3.58;;;10.20;62.10;;;;;;5071445;28;20036;-66
2021/11/05 02:59:05;;;;;;;4.75;3.58;;;10.20;62.00;;;;;;5069556;28;20481;-59
2021/11/05 03:01:32;;;;;;;4.30;3.40;;;10.10;62.00;;;;;;5071483;28;20029;-60
2021/11/05 03:04:07;;;;;;;7.18;3.70;;;10.10;62.20;;;;;;5070657;28;20428;-58
2021/11/05 03:06:35;;;;;;;5.50;3.47;;;10.10;62.10;;;;;;5069759;28;20029;-63
2021/11/05 03:09:14;;;;;;;4.97;3.30;;;10.10;62.10;;;;;;5070554;28;20458;-61
2021/11/05 03:11:41;;;;;;;5.07;3.33;;;10.10;62.30;;;;;;5069744;28;20458;-63
2021/11/05 03:14:08;;;;;;;4.85;3.40;;;10.10;62.30;;;;;;5070545;28;20020;-62
2021/11/05 03:16:34;;;;;;;6.00;3.20;;;10.10;62.30;;;;;;5071041;28;20103;-61
2021/11/05 03:19:01;;;;;;;5.15;3.10;;;10.10;62.40;;;;;;5070396;28;20456;-66
2021/11/05 03:21:27;;;;;;;4.45;2.80;;;10.10;62.30;;;;;;5071267;28;20103;-63
2021/11/05 03:23:53;;;;;;;4.45;3.35;;;10.10;62.10;;;;;;5069378;28;20025;-69
2021/11/05 03:26:19;;;;;;;4.15;3.20;;;10.20;61.90;;;;;;5069469;28;20569;-65
2021/11/05 03:28:45;;;;;;;5.40;3.60;;;10.20;61.80;;;;;;5070763;28;20107;-64
2021/11/05 03:31:10;;;;;;;4.13;3.10;;;10.20;61.90;;;;;;5069539;28;20112;-61
2021/11/05 03:33:36;;;;;;;4.38;3.20;;;10.20;61.70;;;;;;5069826;28;20027;-66
2021/11/05 03:36:02;;;;;;;4.68;3.35;;;10.20;61.70;;;;;;5069015;28;20063;-59
2021/11/05 03:38:28;;;;;;;5.88;3.45;;;10.20;61.70;;;;;;5071025;28;20457;-62
2021/11/05 03:40:54;;;;;;;4.88;3.30;;;10.20;61.60;;;;;;5070536;28;20060;-59
2021/11/05 03:43:20;;;;;;;4.20;3.00;;;10.20;62.20;;;;;;5070909;28;20059;-65
2021/11/05 03:45:45;;;;;;;4.13;3.22;;;10.20;61.60;;;;;;5070554;28;20440;-64
2021/11/05 03:48:11;;;;;;;6.65;3.60;;;10.20;61.50;;;;;;5072560;28;20041;-65
2021/11/05 03:50:37;;;;;;;4.82;3.25;;;10.20;61.50;;;;;;5073467;28;20513;-63
2021/11/05 03:53:03;;;;;;;5.03;3.33;;;10.20;61.50;;;;;;5066476;28;20053;-63
2021/11/05 03:55:29;;;;;;;5.78;3.15;;;10.20;61.40;;;;;;5020286;28;20447;-62
2021/11/05 03:57:54;;;;;;;6.00;3.00;;;10.20;61.40;;;;;;5053652;28;20574;-65
2021/11/05 04:00:21;;;;;;;4.78;3.22;;;10.20;61.40;;;;;;5054314;28;20025;-63
2021/11/05 04:02:47;;;;;;;4.30;3.25;;;10.10;61.20;;;;;;5054514;28;20021;-66
2021/11/05 04:05:13;;;;;;;4.78;3.63;;;10.20;61.30;;;;;;5054487;28;20033;-62
2021/11/05 04:07:40;;;;;;;5.57;3.80;;;10.20;61.30;;;;;;5036047;28;20025;-66
2021/11/05 04:10:06;;;;;;;4.03;3.35;;;10.20;61.30;;;;;;5052481;28;20104;-66
2021/11/05 04:12:32;;;;;;;4.82;3.35;;;10.20;61.30;;;;;;5036331;28;20504;-66
2021/11/05 04:14:58;;;;;;;5.50;3.50;;;10.20;61.20;;;;;;5053539;28;20117;-65
2021/11/05 04:17:24;;;;;;;4.55;3.40;;;10.20;61.30;;;;;;5053864;28;20378;-61
2021/11/05 04:19:49;;;;;;;4.70;3.67;;;10.20;61.30;;;;;;5052162;28;20074;-64
2021/11/05 04:22:15;;;;;;;4.22;3.70;;;10.30;61.30;;;;;;5036248;28;20028;-65
2021/11/05 04:24:41;;;;;;;4.60;3.35;;;10.30;61.10;;;;;;5036026;28;20032;-64
2021/11/05 04:27:07;;;;;;;5.18;3.05;;;10.40;61.00;;;;;;5052893;28;20127;-67
2021/11/05 04:29:35;;;;;;;6.82;3.75;;;10.40;60.70;;;;;;5052422;28;20029;-67
2021/11/05 04:32:02;;;;;;;3.90;3.03;;;10.40;60.60;;;;;;5053282;28;20028;-64
2021/11/05 04:34:27;;;;;;;3.90;3.17;;;10.40;60.50;;;;;;5053550;28;20462;-66
2021/11/05 04:36:53;;;;;;;6.78;3.80;;;10.40;60.40;;;;;;5052709;28;20124;-68
2021/11/05 04:39:21;;;;;;;3.70;3.22;;;10.40;60.50;;;;;;5053488;28;20485;-59
2021/11/05 04:41:48;;;;;;;3.78;3.13;;;10.30;60.70;;;;;;5053553;28;20021;-65
2021/11/05 04:44:14;;;;;;;5.47;3.35;;;10.40;60.70;;;;;;5052287;28;20070;-63
2021/11/05 04:46:41;;;;;;;4.38;3.35;;;10.40;60.70;;;;;;5053055;28;20064;-64
2021/11/05 04:49:07;;;;;;;5.53;3.58;;;10.40;60.70;;;;;;5052628;28;20104;-62
2021/11/05 04:51:33;;;;;;;3.90;2.90;;;10.40;60.60;;;;;;5053290;28;20110;-64
2021/11/05 04:53:59;;;;;;;5.32;3.28;;;10.40;60.20;;;;;;5051153;28;20080;-62
2021/11/05 04:56:44;;;;;;;4.10;2.88;;;10.40;60.20;;;;;;5035299;28;20405;-65
2021/11/05 04:59:10;;;;;;;4.38;3.00;;;10.40;60.00;;;;;;5051371;28;20151;-64
2021/11/05 05:01:37;;;;;;;3.85;2.67;;;10.40;60.10;;;;;;5053246;28;20028;-66
2021/11/05 05:04:02;;;;;;;4.80;2.53;;;10.40;60.00;;;;;;5052834;28;20025;-65
2021/11/05 05:06:28;;;;;;;4.22;2.72;;;10.40;59.90;;;;;;5035131;28;20051;-62
2021/11/05 05:08:54;;;;;;;4.38;2.88;;;10.40;60.00;;;;;;5052459;28;20025;-61
2021/11/05 05:11:19;;;;;;;3.88;2.85;;;10.30;59.80;;;;;;5051645;28;20117;-61
2021/11/05 05:13:45;;;;;;;3.70;3.00;;;10.30;60.00;;;;;;5053317;28;20479;-61
2021/11/05 05:16:11;;;;;;;10.40;2.95;;;10.30;59.80;;;;;;5034423;28;20390;-60
2021/11/05 05:18:37;;;;;;;5.05;2.90;;;10.30;59.90;;;;;;5053080;28;20399;-61
2021/11/05 05:21:03;;;;;;;4.20;2.50;;;10.30;60.10;;;;;;5051925;28;20525;-63
2021/11/05 05:23:28;;;;;;;5.25;3.47;;;10.40;60.00;;;;;;5052166;28;20472;-61
2021/11/05 05:25:54;;;;;;;8.07;3.08;;;10.40;59.90;;;;;;5052376;28;20355;-64
2021/11/05 05:28:20;;;;;;;9.70;3.58;;;10.40;59.90;;;;;;5053077;28;20051;-65
2021/11/05 05:30:46;;;;;;;5.93;3.70;;;10.30;60.00;;;;;;5052922;28;20486;-63
2021/11/05 05:33:12;;;;;;;7.72;4.00;;;10.30;60.30;;;;;;5052310;28;20029;-61
2021/11/05 05:35:37;;;;;;;10.98;3.63;;;10.30;60.30;;;;;;5052423;28;20436;-66
2021/11/05 05:38:03;;;;;;;10.32;3.78;;;10.30;60.10;;;;;;5050398;28;20033;-60
2021/11/05 05:40:29;;;;;;;14.63;4.05;;;10.30;60.20;;;;;;5052475;28;20029;-61
2021/11/05 05:42:54;;;;;;;10.55;4.03;;;10.30;60.40;;;;;;5051590;28;20028;-62
2021/11/05 05:45:21;;;;;;;5.28;3.70;;;10.40;60.50;;;;;;5034479;28;20273;-63
2021/11/05 05:47:47;;;;;;;6.25;3.63;;;10.40;60.30;;;;;;5052028;28;20535;-59
2021/11/05 05:50:15;;;;;;;6.82;3.42;;;10.30;60.10;;;;;;5049548;28;20128;-60
2021/11/05 05:52:42;;;;;;;7.50;3.15;;;10.40;60.20;;;;;;5038792;28;20446;-56
2021/11/05 05:55:09;;;;;;;5.40;3.53;;;10.40;60.20;;;;;;5070527;28;20032;-62
2021/11/05 05:57:36;;;;;;;6.50;3.42;;;10.40;60.20;;;;;;5070774;28;20450;-59
2021/11/05 06:00:03;;;;;;;4.68;4.00;;;10.40;60.30;;;;;;5070224;28;20115;-60
2021/11/05 06:02:29;;;;;;;4.72;3.33;;;10.50;60.30;;;;;;5070934;28;20465;-62
2021/11/05 06:04:55;;;;;;;5.20;3.10;;;10.40;60.10;;;;;;5070210;28;20119;-64
2021/11/05 06:07:20;;;;;;;4.70;2.90;;;10.50;60.10;;;;;;5070985;28;20029;-64
2021/11/05 06:09:46;;;;;;;5.63;3.10;;;10.50;60.00;;;;;;5071481;28;20432;-66
2021/11/05 06:12:12;;;;;;;5.18;3.40;;;10.50;59.90;;;;;;5071551;28;20025;-62
2021/11/05 06:14:38;;;;;;;5.07;3.38;;;10.60;59.70;;;;;;5072005;28;20060;-64
2021/11/05 06:17:04;;;;;;;9.15;3.28;;;10.60;59.60;;;;;;5071662;28;20028;-62
2021/11/05 06:19:30;;;;;;;7.03;3.50;;;10.60;59.50;;;;;;5071867;28;20484;-69
2021/11/05 06:21:55;;;;;;;5.25;3.72;;;10.70;59.50;;;;;;5071229;28;20504;-70
2021/11/05 06:24:22;;;;;;;7.43;3.85;;;10.70;59.40;;;;;;5070135;28;20024;-63
2021/11/05 06:26:49;;;;;;;6.25;3.35;;;10.70;59.10;;;;;;5072073;28;20439;-67
2021/11/05 06:29:16;;;;;;;5.60;3.25;;;10.70;59.20;;;;;;5070485;28;20037;-62
2021/11/05 06:31:42;;;;;;;6.60;3.33;;;10.70;58.90;;;;;;5071677;28;20056;-62
2021/11/05 06:36:52;;;;;;;;;;;10.70;59.10;;;;;;5070800;28;20081;-61
2021/11/05 06:39:18;;;;;;;7.18;3.83;;;10.80;58.70;;;;;;5071251;28;19995;-62
2021/11/05 06:41:43;;;;;;;8.75;3.70;;;10.70;58.90;;;;;;5071708;28;20530;-64
2021/11/05 06:44:09;;;;;;;5.72;3.10;;;10.70;58.90;;;;;;5069778;28;20277;-63
2021/11/05 06:46:35;;;;;;;7.90;3.03;;;10.70;59.00;;;;;;5070161;28;20415;-62
2021/11/05 06:49:01;;;;;;;7.20;3.25;;;10.70;58.90;;;;;;5070736;28;20442;-62
2021/11/05 06:51:26;;;;;;;6.57;3.20;;;10.80;58.80;;;;;;5071668;28;20456;-63
2021/11/05 06:53:52;;;;;;;5.30;3.40;;;10.80;58.70;;;;;;5057063;28;20060;-62
2021/11/05 06:56:18;;;;;;;6.03;3.40;;;10.80;58.70;;;;;;5033096;28;20108;-64
2021/11/05 06:58:45;;;;;;;9.70;3.78;;;10.90;58.60;;;;;;5051175;28;20052;-62
2021/11/05 07:01:11;;;;;;;8.02;3.63;;;11.00;58.20;;;;;;5032935;28;20115;-57
2021/11/05 07:03:37;;;;;;;7.05;3.33;;;11.00;58.00;;;;;;5033424;28;20413;-65
2021/11/05 07:06:03;;;;;;;11.75;3.40;;;11.00;57.90;;;;;;5051240;28;20025;-65
2021/11/05 07:08:30;;;;;;;9.32;3.58;;;11.10;57.60;;;;;;5051245;28;20039;-64
2021/11/05 07:10:57;;;;;;;6.20;3.05;;;11.10;57.50;;;;;;5050926;28;20031;-61
2021/11/05 07:13:23;;;;;;;6.75;3.90;;;11.10;57.60;;;;;;5051177;28;20082;-64
2021/11/05 07:15:49;;;;;;;7.55;4.10;;;11.10;57.50;;;;;;5051360;28;20033;-60
2021/11/05 07:18:15;;;;;;;6.22;3.45;;;11.20;57.60;;;;;;5032788;28;20467;-64
2021/11/05 07:20:43;;;;;;;9.88;3.97;;;11.30;57.20;;;;;;5052649;28;20025;-65
2021/11/05 07:23:09;;;;;;;5.60;3.20;;;11.40;57.20;;;;;;5036679;28;20025;-62
2021/11/05 07:25:35;;;;;;;5.07;3.08;;;11.50;57.10;;;;;;5055180;28;20036;-63
2021/11/05 07:28:01;;;;;;;8.50;3.00;;;11.70;56.70;;;;;;5054698;28;20029;-61
2021/11/05 07:30:27;;;;;;;5.60;3.20;;;11.80;56.10;;;;;;5037337;28;20032;-62
2021/11/05 07:32:53;;;;;;;5.93;3.40;;;11.90;55.80;;;;;;5036843;28;20467;-63
2021/11/05 07:35:21;;;;;;;7.00;3.20;;;11.90;55.40;;;;;;5036997;28;20025;-60
2021/11/05 07:37:48;;;;;;;6.32;3.05;;;12.10;55.20;;;;;;5055175;28;20036;-62
2021/11/05 07:40:14;;;;;;;6.13;3.08;;;12.30;54.70;;;;;;5036591;28;20033;-61
2021/11/05 07:42:41;;;;;;;12.25;4.82;;;12.40;54.30;;;;;;5054841;28;20025;-63
2021/11/05 07:45:09;;;;;;;6.68;3.45;;;12.50;54.10;;;;;;5036511;28;20033;-63
2021/11/05 07:47:36;;;;;;;10.57;3.85;;;12.60;53.90;;;;;;5054787;28;20501;-63
2021/11/05 07:50:03;;;;;;;4.07;3.20;;;12.70;53.80;;;;;;5036444;28;20048;-61
2021/11/05 07:52:29;;;;;;;4.20;2.97;;;12.70;52.70;;;;;;5054434;28;20520;-63
2021/11/05 07:54:55;;;;;;;10.50;3.28;;;12.80;53.00;;;;;;5054203;28;20107;-60
2021/11/05 07:57:21;;;;;;;8.20;3.17;;;12.80;52.40;;;;;;5036505;28;20080;-65
2021/11/05 07:59:47;;;;;;;7.85;3.53;;;12.70;52.40;;;;;;5036701;28;20033;-62
2021/11/05 08:02:14;;;;;;;8.02;3.45;;;12.70;52.80;;;;;;5053578;28;20045;-71
2021/11/05 08:04:39;;;;;;;4.30;2.78;;;12.90;52.90;;;;;;5019659;28;20029;-63
2021/11/05 08:07:05;;;;;;;4.53;3.10;;;12.90;52.10;;;;;;5036129;28;20033;-61
2021/11/05 08:09:31;;;;;;;8.98;2.90;;;12.90;52.10;;;;;;5036303;28;20033;-56
2021/11/05 08:11:57;;;;;;;6.00;3.53;;;12.90;51.90;;;;;;5053831;28;20106;-61
2021/11/05 08:14:23;;;;;;;6.13;3.30;;;12.90;52.50;;;;;;5054113;28;20505;-59
2021/11/05 08:16:49;;;;;;;8.13;3.22;;;12.90;52.10;;;;;;5036116;28;20061;-60
2021/11/05 08:19:15;;;;;;;8.20;3.22;;;12.90;52.00;;;;;;5049607;28;20032;-53
2021/11/05 08:21:40;;;;;;;3.63;2.47;;;12.90;52.00;;;;;;5035191;28;20032;-62
2021/11/05 08:24:07;;;;;;;4.68;3.00;;;13.00;52.10;;;;;;5035892;28;20080;-51
2021/11/05 08:26:33;;;;;;;4.30;2.88;;;13.10;51.60;;;;;;5035985;28;20040;-64
2021/11/05 08:29:00;;;;;;;5.80;2.85;;;13.20;51.50;;;;;;5052014;28;20032;-60
2021/11/05 08:31:26;;;;;;;4.95;2.58;;;13.10;50.70;;;;;;5053692;28;20033;-60
2021/11/05 08:33:53;;;;;;;6.93;2.90;;;13.10;51.10;;;;;;5051404;28;20044;-60
2021/11/05 08:36:22;;;;;;;5.95;2.55;;;13.20;50.90;;;;;;5053100;28;20078;-60
2021/11/05 08:38:48;;;;;;;6.57;2.97;;;13.10;50.70;;;;;;5035838;28;20159;-56
2021/11/05 08:41:17;;;;;;;4.85;3.00;;;13.00;51.00;;;;;;5051939;28;20489;-59
2021/11/05 08:43:52;;;;;;;5.15;2.83;;;13.00;51.50;;;;;;5053732;28;20151;-55
2021/11/05 08:46:20;;;;;;;6.20;2.72;;;13.10;51.40;;;;;;5035290;28;20071;-51
2021/11/05 08:48:48;;;;;;;4.22;2.70;;;13.10;50.60;;;;;;5051577;28;20025;-58
2021/11/05 08:51:15;;;;;;;11.40;2.63;;;13.00;51.00;;;;;;5035052;28;20116;-63
2021/11/05 08:53:41;;;;;;;7.57;2.90;;;13.10;50.80;;;;;;5053402;28;20509;-63
2021/11/05 08:56:07;;;;;;;5.85;3.33;;;13.20;50.80;;;;;;5050678;28;20033;-62
2021/11/05 08:58:35;;;;;;;4.70;3.13;;;13.30;51.00;;;;;;5052969;28;20029;-61
2021/11/05 09:01:01;;;;;;;5.47;3.58;;;13.20;50.30;;;;;;5051309;28;20091;-61
2021/11/05 09:03:27;;;;;;;7.53;2.80;;;13.20;50.80;;;;;;5053261;28;20110;-58
2021/11/05 09:05:53;;;;;;;5.65;2.67;;;13.30;50.80;;;;;;5052707;28;20025;-61
2021/11/05 09:08:19;;;;;;;5.00;2.55;;;13.40;50.30;;;;;;5051491;28;20033;-60
2021/11/05 09:10:45;;;;;;;5.78;3.03;;;13.40;50.50;;;;;;5053171;28;20024;-61
2021/11/05 09:13:11;;;;;;;10.57;3.20;;;13.50;50.60;;;;;;5050590;28;20021;-61
2021/11/05 09:15:37;;;;;;;8.40;4.50;;;13.60;50.60;;;;;;5051009;28;20033;-61
2021/11/05 09:18:07;;;;;;;3.85;2.40;;;13.70;50.30;;;;;;5032884;28;20079;-58
2021/11/05 09:20:33;;;;;;;3.53;2.88;;;13.80;50.00;;;;;;5051607;28;20025;-56
2021/11/05 09:23:18;;;;;;;7.97;2.78;;;13.80;50.10;;;;;;5034254;28;20116;-60
2021/11/05 09:25:44;;;;;;;4.22;2.90;;;13.80;49.50;;;;;;5051276;28;20043;-60
2021/11/05 09:28:10;;;;;;;6.75;3.60;;;14.00;49.80;;;;;;5051612;28;20103;-62
2021/11/05 09:30:36;;;;;;;3.75;2.78;;;14.10;49.40;;;;;;5035468;28;20025;-61
2021/11/05 09:33:02;;;;;;;5.50;2.30;;;14.30;48.80;;;;;;5052810;28;20029;-61
2021/11/05 09:35:28;;;;;;;4.15;2.72;;;14.30;48.10;;;;;;5034301;28;20076;-61
2021/11/05 09:37:54;;;;;;;5.82;2.80;;;14.40;48.00;;;;;;5052347;28;20052;-59
2021/11/05 09:40:24;;;;;;;3.83;2.28;;;14.40;48.30;;;;;;5052605;28;20104;-60
2021/11/05 09:42:52;;;;;;;7.13;2.35;;;14.40;47.30;;;;;;5034604;28;20025;-59
2021/11/05 09:45:19;;;;;;;4.47;2.90;;;14.40;47.70;;;;;;5032666;28;20025;-62
2021/11/05 09:47:45;;;;;;;5.68;2.60;;;14.60;47.80;;;;;;5052225;28;20036;-60
2021/11/05 09:50:15;;;;;;;6.25;2.65;;;14.60;47.20;;;;;;5051548;28;20478;-63
2021/11/05 09:52:41;;;;;;;4.53;2.50;;;14.80;47.20;;;;;;5052049;28;20078;-64
2021/11/05 09:55:08;;;;;;;5.78;3.05;;;14.90;47.30;;;;;;5049619;28;20604;-63
2021/11/05 09:57:33;;;;;;;5.35;2.28;;;15.10;46.90;;;;;;5047980;28;20029;-63
2021/11/05 09:59:59;;;;;;;6.47;2.30;;;15.20;46.60;;;;;;5033660;28;20025;-61
2021/11/05 10:02:25;;;;;;;6.13;2.20;;;15.30;46.30;;;;;;5051646;28;20507;-67
2021/11/05 10:04:52;;;;;;;5.63;3.20;;;15.20;45.50;;;;;;5051841;28;20104;-56
2021/11/05 10:07:18;;;;;;;4.38;2.35;;;15.10;45.90;;;;;;5050532;28;20454;-60
2021/11/05 10:09:50;;;;;;;6.30;2.22;;;14.90;46.10;;;;;;5051376;28;20029;-65
2021/11/05 10:12:19;;;;;;;4.53;2.95;;;14.80;46.90;;;;;;5049260;28;20035;-59
2021/11/05 10:14:53;;;;;;;6.80;2.80;;;14.60;46.60;;;;;;5051259;28;20067;-60
2021/11/05 10:17:19;;;;;;;7.38;3.60;;;14.60;47.20;;;;;;5050535;28;20082;-60
2021/11/05 10:19:57;;;;;;;5.05;2.40;;;14.60;47.10;;;;;;5031968;28;20467;-59
2021/11/05 10:22:42;;;;;;;9.27;2.53;;;14.70;46.90;;;;;;5051309;28;20029;-60
2021/11/05 10:25:40;;;;;;;6.35;2.40;;;14.80;46.90;;;;;;5032967;28;20115;-63
2021/11/05 10:28:07;;;;;;;6.03;2.60;;;14.80;46.30;;;;;;5050570;28;20025;-57
2021/11/05 10:30:54;;;;;;;6.10;2.35;;;14.70;46.60;;;;;;5051213;28;20025;-53
2021/11/05 10:33:28;;;;;;;6.03;2.65;;;14.70;46.80;;;;;;5050107;28;20037;-60
2021/11/05 10:35:59;;;;;;;6.07;2.35;;;14.60;47.00;;;;;;5033134;28;20530;-60
2021/11/05 10:38:25;;;;;;;12.77;2.22;;;14.60;47.00;;;;;;5032834;28;20025;-62
2021/11/05 10:40:56;;;;;;;6.05;3.20;;;14.60;46.90;;;;;;5049509;28;20366;-60
2021/11/05 10:43:34;;;;;;;6.90;2.63;;;14.50;47.10;;;;;;5050718;28;20528;-58
2021/11/05 10:46:00;;;;;;;6.15;2.53;;;14.60;46.90;;;;;;5050203;28;20027;-60
2021/11/05 10:48:30;;;;;;;4.82;1.90;;;14.60;47.50;;;;;;5032302;28;20029;-60
2021/11/05 10:50:56;;;;;;;8.20;2.92;;;14.50;47.10;;;;;;5048950;28;20025;-58
2021/11/05 10:53:30;;;;;;;6.03;2.90;;;14.50;47.40;;;;;;5049898;28;20055;-54
2021/11/05 10:56:02;;;;;;;6.25;2.55;;;14.60;47.40;;;;;;5070093;28;20041;-60
2021/11/05 10:58:38;;;;;;;4.43;2.35;;;14.60;47.00;;;;;;5069553;28;20083;-56
2021/11/05 11:01:16;;;;;;;4.93;2.63;;;14.50;46.90;;;;;;5070439;28;20481;-55
2021/11/05 11:03:58;;;;;;;4.22;2.20;;;14.50;47.30;;;;;;5069426;28;20027;-55
2021/11/05 11:06:31;;;;;;;4.38;2.30;;;14.50;47.60;;;;;;5069066;28;20539;-62
2021/11/05 11:08:57;;;;;;;4.65;2.42;;;14.70;46.70;;;;;;5068284;28;20158;-66
2021/11/05 11:11:36;;;;;;;4.88;2.60;;;14.90;46.60;;;;;;5067014;28;20021;-61
2021/11/05 11:14:17;;;;;;;5.78;2.47;;;14.90;45.90;;;;;;5069000;28;20493;-60
2021/11/05 11:17:06;;;;;;;4.57;2.42;;;14.90;46.60;;;;;;5068847;28;20398;-61
2021/11/05 11:19:36;;;;;;;4.88;2.40;;;14.80;46.30;;;;;;5067439;28;20024;-56
2021/11/05 11:22:08;;;;;;;5.47;2.50;;;14.70;46.80;;;;;;5069734;28;20333;-58
2021/11/05 11:24:37;;;;;;;5.80;3.13;;;14.70;46.90;;;;;;5068043;28;20037;-59
2021/11/05 11:27:06;;;;;;;4.82;2.53;;;14.80;47.10;;;;;;5069484;28;20209;-56
2021/11/05 11:29:32;;;;;;;5.57;2.50;;;14.80;46.90;;;;;;5069754;28;20028;-61
2021/11/05 11:32:00;;;;;;;5.38;2.80;;;14.70;46.90;;;;;;5070309;28;20021;-61
2021/11/05 11:34:26;;;;;;;8.98;4.15;;;14.50;47.40;;;;;;5070272;28;20021;-63
2021/11/05 11:36:57;;;;;;;5.43;2.13;;;14.50;47.40;;;;;;5069206;28;20036;-66
2021/11/05 11:39:23;;;;;;;6.72;2.30;;;14.50;47.30;;;;;;5070249;28;20036;-55
2021/11/05 11:41:52;;;;;;;3.17;2.15;;;14.60;47.10;;;;;;5070859;28;20097;-63
2021/11/05 11:44:25;;;;;;;5.03;2.10;;;14.60;47.50;;;;;;5068697;28;20156;-58
2021/11/05 11:46:58;;;;;;;3.63;1.90;;;14.60;46.60;;;;;;5069371;28;20063;-60
2021/11/05 11:49:39;;;;;;;6.50;2.20;;;14.60;46.40;;;;;;5071193;28;20025;-63
2021/11/05 11:52:28;;;;;;;9.07;2.85;;;14.60;46.70;;;;;;5068568;28;20067;-59
2021/11/05 11:55:18;;;;;;;5.35;2.17;;;14.80;46.70;;;;;;5070955;28;20071;-60
2021/11/05 11:57:44;;;;;;;5.63;2.08;;;14.80;46.60;;;;;;5059967;28;20116;-61
2021/11/05 12:00:26;;;;;;;4.57;2.00;;;14.50;47.40;;;;;;5068959;28;20029;-56
2021/11/05 12:03:04;;;;;;;5.38;2.67;;;14.40;46.70;;;;;;5070016;28;20094;-62
2021/11/05 12:05:35;;;;;;;3.78;1.95;;;14.50;46.80;;;;;;5069337;28;20035;-66
2021/11/05 12:08:22;;;;;;;7.30;2.08;;;14.50;46.50;;;;;;5072102;28;20025;-57
2021/11/05 12:11:11;;;;;;;3.42;1.70;;;14.40;47.00;;;;;;5073841;28;20029;-62
2021/11/05 12:13:37;;;;;;;5.03;2.00;;;15.00;46.90;;;;;;5073847;28;20086;-60
2021/11/05 12:16:25;;;;;;;5.13;1.90;;;15.60;44.20;;;;;;5072076;28;20028;-61
2021/11/05 12:21:28;;;;;;;5.00;2.22;;;15.60;44.20;;;;;;5073689;28;20041;-54
2021/11/05 12:24:12;;;;;;;5.10;2.00;;;15.50;44.80;;;;;;5073373;28;20050;-64
2021/11/05 12:26:57;;;;;;;4.95;1.80;;;15.20;44.70;;;;;;5071982;28;20033;-63
2021/11/05 12:29:32;;;;;;;3.45;1.65;;;15.00;46.00;;;;;;5072955;28;20049;-60
2021/11/05 12:32:15;;;;;;;3.97;1.90;;;14.80;46.80;;;;;;5072481;28;20024;-61
2021/11/05 12:34:45;;;;;;;4.28;2.30;;;14.80;46.80;;;;;;5072137;28;20020;-60
2021/11/05 12:37:13;;;;;;;3.47;1.88;;;14.70;46.00;;;;;;5073011;28;20037;-61
2021/11/05 12:39:41;;;;;;;5.00;2.50;;;14.70;47.10;;;;;;5072278;28;20041;-61
2021/11/05 12:42:16;;;;;;;5.68;2.20;;;14.80;47.40;;;;;;5072378;28;20028;-64
2021/11/05 12:44:55;;;;;;;5.07;2.38;;;14.80;46.60;;;;;;5071654;28;20021;-60
2021/11/05 12:47:53;;;;;;;5.80;2.40;;;14.90;46.60;;;;;;5068701;28;20020;-60
2021/11/05 12:50:21;;;;;;;6.07;2.28;;;14.80;46.20;;;;;;5055914;28;20041;-59
2021/11/05 12:52:56;;;;;;;6.10;2.60;;;14.80;46.40;;;;;;5065352;28;20303;-60
2021/11/05 12:55:23;;;;;;;5.18;2.85;;;14.80;46.10;;;;;;5051550;28;20569;-62